Time;durP1;ratioP1;P1;durP2;ratioP2;P2;SDS_P1;SDS_P2;PMS_P1;PMS_P2;Temp;Humidity;BMP_temperature;BMP_pressure;BME280_temperature;BME280_humidity;BME280_pressure;Samples;Min_cycle;Max_cycle;Signal;HPM_P1;HPM_P2
2022/08/28 00:01:06;;;;;;;16.98;3.72;;;16.90;81.80;;;;;;5011658;28;20045;-73
2022/08/28 00:03:32;;;;;;;10.45;3.33;;;16.90;81.70;;;;;;5022284;28;20064;-72
2022/08/28 00:05:59;;;;;;;12.75;3.40;;;16.90;81.40;;;;;;5009876;28;20045;-67
2022/08/28 00:08:24;;;;;;;13.93;3.60;;;16.90;81.20;;;;;;5020055;28;20054;-67
2022/08/28 00:10:50;;;;;;;14.15;3.88;;;16.90;81.50;;;;;;4979065;28;20437;-71
2022/08/28 00:13:19;;;;;;;10.82;3.50;;;16.80;81.90;;;;;;5031252;28;20049;-71
2022/08/28 00:15:45;;;;;;;;;;;16.70;82.30;;;;;;4998866;28;20780;-72
2022/08/28 00:18:11;;;;;;;13.20;3.88;;;16.70;82.10;;;;;;5008579;28;20245;-72
2022/08/28 00:20:37;;;;;;;13.57;3.70;;;16.70;82.20;;;;;;5043359;28;20391;-72
2022/08/28 00:23:04;;;;;;;15.57;4.13;;;16.70;82.20;;;;;;5023139;28;20119;-72
2022/08/28 00:25:30;;;;;;;19.90;4.20;;;16.60;82.20;;;;;;5012275;28;20053;-72
2022/08/28 00:27:57;;;;;;;15.88;3.40;;;16.60;82.30;;;;;;5002127;28;20506;-72
2022/08/28 00:30:24;;;;;;;13.13;3.65;;;16.60;82.30;;;;;;5011770;28;20045;-72
2022/08/28 00:32:50;;;;;;;14.55;3.72;;;16.60;82.40;;;;;;5017840;28;20054;-72
2022/08/28 00:35:17;;;;;;;12.70;3.78;;;16.50;82.50;;;;;;5021740;28;20534;-71
2022/08/28 00:37:44;;;;;;;18.95;3.60;;;16.50;82.50;;;;;;5033518;28;20045;-72
2022/08/28 00:40:11;;;;;;;15.60;4.22;;;16.50;82.80;;;;;;5005620;28;20046;-71
2022/08/28 00:42:37;;;;;;;13.57;3.73;;;16.50;83.20;;;;;;5013653;28;20548;-72
2022/08/28 00:45:05;;;;;;;16.15;4.40;;;16.40;83.10;;;;;;5002355;28;20352;-73
2022/08/28 00:47:30;;;;;;;16.47;3.93;;;16.30;83.70;;;;;;5022452;28;20052;-73
2022/08/28 00:49:56;;;;;;;15.23;4.07;;;16.30;83.60;;;;;;5009069;28;20288;-72
2022/08/28 00:52:23;;;;;;;14.85;4.10;;;16.30;83.90;;;;;;4993394;28;20782;-72
2022/08/28 00:54:54;;;;;;;15.85;4.50;;;16.30;83.60;;;;;;5015967;28;20130;-72
2022/08/28 00:57:25;;;;;;;17.70;4.05;;;16.30;83.50;;;;;;5020111;28;20088;-72
2022/08/28 00:59:51;;;;;;;15.10;3.95;;;16.30;84.00;;;;;;5013407;28;20054;-72
2022/08/28 01:02:17;;;;;;;21.83;5.05;;;16.30;83.90;;;;;;5027085;28;20191;-72
2022/08/28 01:04:43;;;;;;;17.40;4.25;;;16.30;83.90;;;;;;5016030;28;20084;-72
2022/08/28 01:07:11;;;;;;;13.60;4.15;;;16.30;83.90;;;;;;4996184;28;20045;-72
2022/08/28 01:09:39;;;;;;;15.27;4.47;;;16.20;84.20;;;;;;5013813;28;20535;-73
2022/08/28 01:12:15;;;;;;;16.60;4.28;;;16.10;84.50;;;;;;5016056;28;20422;-73
2022/08/28 01:14:40;;;;;;;17.42;4.57;;;16.20;84.60;;;;;;5001877;28;20042;-71
2022/08/28 01:17:08;;;;;;;18.80;4.28;;;16.20;84.80;;;;;;5021089;28;20052;-74
2022/08/28 01:19:43;;;;;;;19.75;4.43;;;16.10;84.60;;;;;;4998886;28;20479;-72
2022/08/28 01:22:30;;;;;;;17.70;4.75;;;16.10;84.80;;;;;;5041080;28;20055;-73
2022/08/28 01:24:56;;;;;;;21.63;4.88;;;16.10;85.30;;;;;;5006865;28;20051;-71
2022/08/28 01:27:22;;;;;;;19.70;4.80;;;16.10;85.10;;;;;;5015984;28;20108;-71
2022/08/28 01:29:48;;;;;;;20.13;4.55;;;16.10;84.80;;;;;;5024665;28;20049;-72
2022/08/28 01:32:30;;;;;;;15.60;4.05;;;16.10;84.80;;;;;;5013039;28;20148;-72
2022/08/28 01:34:56;;;;;;;14.73;4.13;;;16.20;84.70;;;;;;5004607;28;20037;-72
2022/08/28 01:37:22;;;;;;;15.18;4.38;;;16.20;84.70;;;;;;5003348;28;20044;-72
2022/08/28 01:39:48;;;;;;;19.55;4.35;;;16.10;85.00;;;;;;5018477;28;20396;-71
2022/08/28 01:42:14;;;;;;;18.48;4.82;;;16.10;85.40;;;;;;5005806;28;20045;-71
2022/08/28 01:44:39;;;;;;;13.70;4.18;;;16.10;85.10;;;;;;5008658;28;20061;-71
2022/08/28 01:47:05;;;;;;;14.82;4.22;;;16.20;84.80;;;;;;4998811;28;20103;-71
2022/08/28 01:49:31;;;;;;;16.67;4.80;;;16.20;84.70;;;;;;5022860;28;20057;-72
2022/08/28 01:51:57;;;;;;;13.35;3.90;;;16.20;84.80;;;;;;5004700;28;20045;-72
2022/08/28 01:54:24;;;;;;;16.25;4.40;;;16.20;84.50;;;;;;5012259;28;20042;-72
2022/08/28 01:56:50;;;;;;;15.38;4.05;;;16.20;84.70;;;;;;5004972;28;20117;-72
2022/08/28 01:59:16;;;;;;;20.25;4.20;;;16.20;84.60;;;;;;5005178;28;20128;-72
2022/08/28 02:01:42;;;;;;;14.68;3.42;;;16.20;84.70;;;;;;5023531;28;20068;-72
2022/08/28 02:04:08;;;;;;;16.98;4.10;;;16.20;84.80;;;;;;5019859;28;20132;-70
2022/08/28 02:06:35;;;;;;;15.32;4.22;;;16.10;85.20;;;;;;5003204;28;20045;-70
2022/08/28 02:09:00;;;;;;;12.95;4.10;;;16.00;85.70;;;;;;5045087;28;20148;-69
2022/08/28 02:11:28;;;;;;;19.55;4.35;;;16.00;85.50;;;;;;5014835;28;20164;-69
2022/08/28 02:13:54;;;;;;;16.33;4.22;;;16.00;85.70;;;;;;5018465;28;20038;-70
2022/08/28 02:16:20;;;;;;;14.38;4.32;;;16.00;85.80;;;;;;5018895;28;20052;-69
2022/08/28 02:18:48;;;;;;;15.10;4.00;;;16.10;85.40;;;;;;5006764;28;20050;-69
2022/08/28 02:21:14;;;;;;;19.02;4.30;;;16.10;85.20;;;;;;5012947;28;20053;-69
2022/08/28 02:23:41;;;;;;;17.75;4.18;;;16.00;85.60;;;;;;4993150;28;20046;-69
2022/08/28 02:26:07;;;;;;;15.80;4.30;;;15.90;86.30;;;;;;5019692;28;20772;-70
2022/08/28 02:28:33;;;;;;;21.83;4.55;;;16.00;86.10;;;;;;5012073;28;20511;-70
2022/08/28 02:30:58;;;;;;;16.75;4.38;;;16.00;85.50;;;;;;4990283;28;20045;-70
2022/08/28 02:33:24;;;;;;;18.15;4.32;;;16.00;85.80;;;;;;5018054;28;20049;-69
2022/08/28 02:35:50;;;;;;;14.23;3.92;;;15.90;86.40;;;;;;5012819;28;20054;-70
2022/08/28 02:38:16;;;;;;;12.05;4.07;;;15.90;86.40;;;;;;5003296;28;20778;-71
2022/08/28 02:40:42;;;;;;;14.55;4.05;;;15.90;86.20;;;;;;5021057;28;20375;-72
2022/08/28 02:43:08;;;;;;;18.88;4.30;;;15.90;86.90;;;;;;5011052;28;20361;-73
2022/08/28 02:45:34;;;;;;;15.75;4.30;;;15.80;87.00;;;;;;4995870;28;20686;-72
2022/08/28 02:48:00;;;;;;;13.80;3.70;;;15.70;87.20;;;;;;5020807;28;20049;-72
2022/08/28 02:50:26;;;;;;;17.20;4.55;;;15.80;87.20;;;;;;5025725;28;20077;-72
2022/08/28 02:52:52;;;;;;;12.43;3.80;;;15.80;87.00;;;;;;5023708;28;20075;-72
2022/08/28 02:55:18;;;;;;;16.33;4.05;;;15.80;87.50;;;;;;5009940;28;20535;-72
2022/08/28 02:57:45;;;;;;;15.57;4.22;;;15.80;87.10;;;;;;5046361;28;20567;-73
2022/08/28 03:00:13;;;;;;;19.55;5.28;;;15.80;87.00;;;;;;4995757;28;20079;-72
2022/08/28 03:02:40;;;;;;;17.70;4.35;;;15.80;87.70;;;;;;5029286;28;20125;-73
2022/08/28 03:05:07;;;;;;;16.60;4.68;;;15.70;87.90;;;;;;5005607;28;20417;-73
2022/08/28 03:07:32;;;;;;;17.30;4.32;;;15.80;87.70;;;;;;5033892;28;20055;-73
2022/08/28 03:09:58;;;;;;;16.25;4.97;;;15.80;88.00;;;;;;5019598;28;20157;-73
2022/08/28 03:12:24;;;;;;;19.88;4.53;;;15.70;87.80;;;;;;5018657;28;20140;-73
2022/08/28 03:14:53;;;;;;;18.48;4.57;;;15.80;88.00;;;;;;5013547;28;20073;-72
2022/08/28 03:17:18;;;;;;;16.20;4.03;;;15.70;88.00;;;;;;5025586;28;20471;-72
2022/08/28 03:19:48;;;;;;;15.43;4.30;;;15.80;87.70;;;;;;5004643;28;20870;-73
2022/08/28 03:22:16;;;;;;;14.43;4.32;;;15.80;87.60;;;;;;5023214;28;20075;-73
2022/08/28 03:24:43;;;;;;;17.15;4.80;;;15.80;87.30;;;;;;5017323;28;20099;-72
2022/08/28 03:27:10;;;;;;;21.23;5.07;;;15.80;87.70;;;;;;5023416;28;20096;-72
2022/08/28 03:29:36;;;;;;;21.35;5.22;;;15.70;88.00;;;;;;5014791;28;20046;-72
2022/08/28 03:32:03;;;;;;;12.02;4.03;;;15.80;87.60;;;;;;5020737;28;20044;-72
2022/08/28 03:34:29;;;;;;;16.50;4.15;;;15.80;87.90;;;;;;5024899;28;20121;-72
2022/08/28 03:36:56;;;;;;;12.05;4.32;;;15.70;87.90;;;;;;5029926;28;20095;-71
2022/08/28 03:39:23;;;;;;;16.20;4.38;;;15.80;87.90;;;;;;4974255;28;20052;-72
2022/08/28 03:41:50;;;;;;;17.90;4.40;;;15.80;88.10;;;;;;5011364;28;20452;-72
2022/08/28 03:44:17;;;;;;;17.35;4.78;;;15.80;87.80;;;;;;5001698;28;20042;-72
2022/08/28 03:46:44;;;;;;;16.30;4.75;;;15.70;88.60;;;;;;5015410;28;20053;-72
2022/08/28 03:49:11;;;;;;;16.20;4.47;;;15.60;89.00;;;;;;5028012;28;20056;-72
2022/08/28 03:51:37;;;;;;;13.50;4.63;;;15.60;89.20;;;;;;5061743;28;20053;-72
2022/08/28 03:54:03;;;;;;;22.60;4.80;;;15.60;88.90;;;;;;5028334;28;20056;-72
2022/08/28 03:56:30;;;;;;;18.90;4.68;;;15.60;88.60;;;;;;5010300;28;20038;-72
2022/08/28 03:58:59;;;;;;;17.88;4.57;;;15.60;88.80;;;;;;5027439;28;20045;-72
2022/08/28 04:01:26;;;;;;;15.45;4.22;;;15.70;88.70;;;;;;5009949;28;20048;-72
2022/08/28 04:03:53;;;;;;;20.77;4.88;;;15.70;88.50;;;;;;5017584;28;20127;-72
2022/08/28 04:06:20;;;;;;;17.58;4.78;;;15.70;88.30;;;;;;5024636;28;20054;-71
2022/08/28 04:08:47;;;;;;;14.27;4.13;;;15.70;88.40;;;;;;5014845;28;20797;-72
2022/08/28 04:11:14;;;;;;;17.15;4.00;;;15.70;88.60;;;;;;5040567;28;20049;-71
2022/08/28 04:13:40;;;;;;;17.50;4.35;;;15.70;88.30;;;;;;5040765;28;20068;-72
2022/08/28 04:16:10;;;;;;;16.10;4.93;;;15.70;88.40;;;;;;5015535;28;20045;-72
2022/08/28 04:18:39;;;;;;;16.58;4.47;;;15.60;88.90;;;;;;4995013;28;20080;-72
2022/08/28 04:21:11;;;;;;;16.67;4.00;;;15.60;88.90;;;;;;5021157;28;20478;-72
2022/08/28 04:23:39;;;;;;;16.80;4.40;;;15.60;88.90;;;;;;5000407;28;20057;-67
2022/08/28 04:26:06;;;;;;;20.77;4.50;;;15.60;89.00;;;;;;5002353;28;20049;-67
2022/08/28 04:28:32;;;;;;;18.23;5.57;;;15.50;89.30;;;;;;5023917;28;20048;-67
2022/08/28 04:31:00;;;;;;;18.90;4.45;;;15.60;89.10;;;;;;5013333;28;20299;-67
2022/08/28 04:33:26;;;;;;;15.00;4.17;;;15.50;89.00;;;;;;5008946;28;20467;-72
2022/08/28 04:35:53;;;;;;;14.45;4.38;;;15.60;88.90;;;;;;5022133;28;20048;-71
2022/08/28 04:38:20;;;;;;;16.02;4.03;;;15.60;88.90;;;;;;5022989;28;20434;-72
2022/08/28 04:40:47;;;;;;;15.05;4.47;;;15.50;89.30;;;;;;5016177;28;20060;-71
2022/08/28 04:43:14;;;;;;;16.05;4.72;;;15.50;89.00;;;;;;5003473;28;20057;-71
2022/08/28 04:45:42;;;;;;;17.02;4.57;;;15.50;89.20;;;;;;5018822;28;20049;-71
2022/08/28 04:48:11;;;;;;;19.05;4.93;;;15.50;88.90;;;;;;5038482;28;20060;-71
2022/08/28 04:50:42;;;;;;;16.30;4.45;;;15.40;89.30;;;;;;5008516;28;20059;-70
2022/08/28 04:53:09;;;;;;;19.70;4.80;;;15.40;89.20;;;;;;5033083;28;20049;-71
2022/08/28 04:55:43;;;;;;;14.93;4.40;;;15.50;89.00;;;;;;5000781;28;20049;-72
2022/08/28 04:58:09;;;;;;;17.05;4.53;;;15.40;89.30;;;;;;5022888;28;20049;-72
2022/08/28 05:00:37;;;;;;;19.70;4.70;;;15.50;89.30;;;;;;5031236;28;20369;-71
2022/08/28 05:03:04;;;;;;;16.33;4.55;;;15.50;89.30;;;;;;5016481;28;20057;-72
2022/08/28 05:05:30;;;;;;;20.10;4.88;;;15.50;89.60;;;;;;5014339;28;20141;-72
2022/08/28 05:07:57;;;;;;;11.70;4.00;;;15.40;89.60;;;;;;5028931;28;20662;-72
2022/08/28 05:10:24;;;;;;;13.70;4.70;;;15.40;89.70;;;;;;5004673;28;20038;-71
2022/08/28 05:12:51;;;;;;;18.98;4.50;;;15.40;89.50;;;;;;5005809;28;20056;-72
2022/08/28 05:15:18;;;;;;;14.68;4.28;;;15.50;89.50;;;;;;5009722;28;20042;-71
2022/08/28 05:17:45;;;;;;;15.07;4.68;;;15.50;89.40;;;;;;5055806;28;20550;-71
2022/08/28 05:20:13;;;;;;;15.18;4.85;;;15.50;89.40;;;;;;5024667;28;20502;-73
2022/08/28 05:22:40;;;;;;;19.17;4.22;;;15.50;89.40;;;;;;5000183;28;20068;-71
2022/08/28 05:25:08;;;;;;;15.40;4.40;;;15.50;89.30;;;;;;4999750;28;20051;-71
2022/08/28 05:27:34;;;;;;;18.05;4.55;;;15.40;89.60;;;;;;5004410;28;20103;-73
2022/08/28 05:30:01;;;;;;;15.13;4.43;;;15.50;89.30;;;;;;5023055;28;20150;-72
2022/08/28 05:32:26;;;;;;;16.02;4.55;;;15.50;89.20;;;;;;5015199;28;20472;-71
2022/08/28 05:34:54;;;;;;;19.33;4.30;;;15.50;89.30;;;;;;5015232;28;20051;-71
2022/08/28 05:37:21;;;;;;;18.92;4.50;;;15.50;89.30;;;;;;5018960;28;20050;-71
2022/08/28 05:39:48;;;;;;;17.65;4.57;;;15.60;89.30;;;;;;5015866;28;20124;-71
2022/08/28 05:42:15;;;;;;;19.80;4.35;;;15.60;89.20;;;;;;5020130;28;20255;-71
2022/08/28 05:44:42;;;;;;;17.88;4.45;;;15.60;89.40;;;;;;5024016;28;20601;-72
2022/08/28 05:47:09;;;;;;;20.75;4.50;;;15.60;89.60;;;;;;4997853;28;20049;-71
2022/08/28 05:49:36;;;;;;;23.13;4.72;;;15.70;89.40;;;;;;5026491;28;20662;-71
2022/08/28 05:52:02;;;;;;;17.30;4.68;;;15.70;89.30;;;;;;5015261;28;20466;-74
2022/08/28 05:54:29;;;;;;;15.60;4.35;;;15.70;89.40;;;;;;4993763;28;20049;-72
2022/08/28 05:56:56;;;;;;;13.68;3.65;;;15.80;89.10;;;;;;5020254;28;20049;-72
2022/08/28 05:59:24;;;;;;;12.27;4.05;;;15.90;89.00;;;;;;5014698;28;20041;-72
2022/08/28 06:01:51;;;;;;;14.80;4.03;;;15.90;88.80;;;;;;5025034;28;20123;-72
2022/08/28 06:04:24;;;;;;;17.88;4.22;;;15.90;88.90;;;;;;5041282;28;20651;-71
2022/08/28 06:06:50;;;;;;;15.50;4.13;;;16.00;88.90;;;;;;5019203;28;20223;-72
2022/08/28 06:09:21;;;;;;;18.95;4.32;;;15.90;88.60;;;;;;5003573;28;20512;-73
2022/08/28 06:11:48;;;;;;;13.30;3.30;;;16.00;88.30;;;;;;4997725;28;20053;-72
2022/08/28 06:14:16;;;;;;;15.55;4.20;;;16.00;88.40;;;;;;5013153;28;20136;-72
2022/08/28 06:16:46;;;;;;;16.70;4.30;;;16.00;88.30;;;;;;5040298;28;20073;-71
2022/08/28 06:19:13;;;;;;;21.58;4.97;;;16.00;88.50;;;;;;5028208;28;20049;-72
2022/08/28 06:21:40;;;;;;;19.25;4.45;;;16.00;88.50;;;;;;5007533;28;20115;-71
2022/08/28 06:24:07;;;;;;;15.23;3.70;;;16.00;88.30;;;;;;5048331;28;20049;-72
2022/08/28 06:26:33;;;;;;;18.48;4.30;;;16.10;88.10;;;;;;5022701;28;20049;-71
2022/08/28 06:29:02;;;;;;;17.25;4.57;;;16.10;87.80;;;;;;5046738;28;20553;-73
2022/08/28 06:31:29;;;;;;;16.08;4.03;;;16.20;87.90;;;;;;5030042;28;20049;-71
2022/08/28 06:33:57;;;;;;;20.70;4.53;;;16.20;87.60;;;;;;5013083;28;20584;-71
2022/08/28 06:36:26;;;;;;;22.93;3.87;;;16.30;87.50;;;;;;4979868;28;20053;-71
2022/08/28 06:38:54;;;;;;;16.05;3.83;;;16.30;87.00;;;;;;5021386;28;20103;-71
2022/08/28 06:41:21;;;;;;;25.20;5.07;;;16.30;86.30;;;;;;5028538;28;20746;-71
2022/08/28 06:43:49;;;;;;;12.85;3.20;;;16.20;86.90;;;;;;5043630;28;20052;-71
2022/08/28 06:46:16;;;;;;;23.55;4.63;;;16.30;87.00;;;;;;5011006;28;20085;-71
2022/08/28 06:48:43;;;;;;;17.67;4.38;;;16.30;86.60;;;;;;5021573;28;20081;-67
2022/08/28 06:51:11;;;;;;;17.88;4.15;;;16.30;86.40;;;;;;5004204;28;20557;-67
2022/08/28 06:53:37;;;;;;;17.70;3.90;;;16.30;86.30;;;;;;5042442;28;20042;-68
2022/08/28 06:56:16;;;;;;;15.07;3.92;;;16.40;86.30;;;;;;5004183;28;20455;-67
2022/08/28 06:58:43;;;;;;;16.35;4.18;;;16.40;86.30;;;;;;5025182;28;20101;-67
2022/08/28 07:01:21;;;;;;;15.55;3.58;;;16.50;85.80;;;;;;5019441;28;20041;-67
2022/08/28 07:03:49;;;;;;;18.08;3.90;;;16.50;85.40;;;;;;5004710;28;20053;-67
2022/08/28 07:06:16;;;;;;;;;;;16.50;85.40;;;;;;5023366;28;20049;-67
2022/08/28 07:08:43;;;;;;;20.55;3.85;;;16.60;84.70;;;;;;5005693;28;19923;-67
2022/08/28 07:11:17;;;;;;;14.02;3.47;;;16.60;84.70;;;;;;4991484;28;20069;-66
2022/08/28 07:13:44;;;;;;;18.52;4.13;;;16.60;84.60;;;;;;5027195;28;20117;-66
2022/08/28 07:16:11;;;;;;;19.17;3.85;;;16.60;84.30;;;;;;4983454;28;20071;-67
2022/08/28 07:18:37;;;;;;;14.73;3.75;;;16.70;84.50;;;;;;5022852;28;20667;-67
2022/08/28 07:21:05;;;;;;;15.55;3.88;;;16.70;84.40;;;;;;5008190;28;20052;-66
2022/08/28 07:23:33;;;;;;;20.30;4.45;;;16.70;83.50;;;;;;5025019;28;20805;-67
2022/08/28 07:26:07;;;;;;;16.60;3.20;;;16.70;83.30;;;;;;5011776;28;20053;-67
2022/08/28 07:28:33;;;;;;;13.40;3.35;;;16.80;83.10;;;;;;5019574;28;20367;-67
2022/08/28 07:31:14;;;;;;;13.20;3.63;;;16.90;82.70;;;;;;5015168;28;20042;-67
2022/08/28 07:33:42;;;;;;;15.07;3.60;;;16.90;81.90;;;;;;5003777;28;20372;-67
2022/08/28 07:36:10;;;;;;;14.73;3.63;;;16.90;81.80;;;;;;4998987;28;20041;-66
2022/08/28 07:38:36;;;;;;;16.65;3.25;;;17.00;81.30;;;;;;5010633;28;20046;-67
2022/08/28 07:41:06;;;;;;;14.18;3.17;;;17.10;81.30;;;;;;5010366;28;20127;-68
2022/08/28 07:46:18;;;;;;;15.60;3.05;;;17.20;81.20;;;;;;5015324;28;20073;-66
2022/08/28 07:48:46;;;;;;;17.77;3.67;;;17.10;81.50;;;;;;5021206;28;20056;-69
2022/08/28 07:51:12;;;;;;;16.83;3.88;;;17.20;80.90;;;;;;5005834;28;20092;-66
2022/08/28 07:53:39;;;;;;;12.00;3.35;;;17.10;80.50;;;;;;5019744;28;20046;-67
2022/08/28 07:56:06;;;;;;;18.25;3.38;;;17.20;79.70;;;;;;5003999;28;20052;-67
2022/08/28 07:58:32;;;;;;;17.40;4.00;;;17.40;80.80;;;;;;5006224;28;20065;-66
2022/08/28 08:01:00;;;;;;;12.63;3.35;;;17.40;79.80;;;;;;5026441;28;20080;-68
2022/08/28 08:03:29;;;;;;;10.77;3.13;;;17.30;79.30;;;;;;5045034;28;20062;-67
2022/08/28 08:06:03;;;;;;;13.48;3.40;;;17.30;78.10;;;;;;5007023;28;20046;-68
2022/08/28 08:08:31;;;;;;;17.63;4.28;;;17.30;79.20;;;;;;5000524;28;20092;-68
2022/08/28 08:11:02;;;;;;;12.10;2.55;;;17.20;77.00;;;;;;4991927;28;20546;-69
2022/08/28 08:13:29;;;;;;;10.93;3.08;;;17.20;77.20;;;;;;4985487;28;20554;-69
2022/08/28 08:16:13;;;;;;;11.43;3.05;;;17.30;78.00;;;;;;5022598;28;20053;-68
2022/08/28 08:18:40;;;;;;;19.00;3.95;;;17.30;76.40;;;;;;5001683;28;20094;-68
2022/08/28 08:21:10;;;;;;;15.63;3.50;;;17.30;76.70;;;;;;5009222;28;20458;-68
2022/08/28 08:23:37;;;;;;;12.85;3.25;;;17.20;77.50;;;;;;5038972;28;20048;-68
2022/08/28 08:26:08;;;;;;;9.40;3.03;;;17.30;77.80;;;;;;5003075;28;20084;-68
2022/08/28 08:28:36;;;;;;;11.30;3.00;;;17.20;76.70;;;;;;4993976;28;20356;-68
2022/08/28 08:31:10;;;;;;;12.70;2.77;;;17.20;76.70;;;;;;5029614;28;20054;-67
2022/08/28 08:33:37;;;;;;;12.40;3.45;;;17.20;77.80;;;;;;4982428;28;20490;-67
2022/08/28 08:36:03;;;;;;;16.52;3.15;;;17.30;78.20;;;;;;4993588;28;20077;-67
2022/08/28 08:38:31;;;;;;;18.90;3.83;;;17.30;76.70;;;;;;5037991;28;20621;-66
2022/08/28 08:41:05;;;;;;;14.98;3.20;;;17.20;78.20;;;;;;5000252;28;20072;-66
2022/08/28 08:43:35;;;;;;;11.70;3.17;;;17.20;77.90;;;;;;4983809;28;20655;-68
2022/08/28 08:46:02;;;;;;;15.23;3.40;;;17.30;76.70;;;;;;5009172;28;20088;-67
2022/08/28 08:48:33;;;;;;;15.70;3.50;;;17.30;75.80;;;;;;4987507;28;20442;-67
2022/08/28 08:51:05;;;;;;;16.35;3.22;;;17.30;74.90;;;;;;5041185;28;20060;-67
2022/08/28 08:54:05;;;;;;;12.50;2.83;;;17.30;73.50;;;;;;5021074;28;20064;-66
2022/08/28 08:56:32;;;;;;;15.52;3.17;;;17.40;74.00;;;;;;5008623;28;20145;-68
2022/08/28 08:59:00;;;;;;;12.30;3.08;;;17.50;74.30;;;;;;5038082;28;20072;-68
2022/08/28 09:01:47;;;;;;;10.43;3.03;;;17.60;73.70;;;;;;5010359;28;20054;-74
2022/08/28 09:04:38;;;;;;;13.45;3.08;;;17.70;74.30;;;;;;5013901;28;20374;-75
2022/08/28 09:07:39;;;;;;;14.60;3.08;;;17.70;74.20;;;;;;5004918;28;20057;-73
2022/08/28 09:10:09;;;;;;;12.63;2.88;;;17.70;71.80;;;;;;5002545;28;20083;-73
2022/08/28 09:13:03;;;;;;;9.13;2.63;;;17.60;72.10;;;;;;5032239;28;20076;-73
2022/08/28 09:15:33;;;;;;;14.98;2.88;;;17.70;73.00;;;;;;5004785;28;20049;-74
2022/08/28 09:18:24;;;;;;;16.10;2.75;;;17.80;72.10;;;;;;5023731;28;20537;-73
2022/08/28 09:20:54;;;;;;;12.00;3.78;;;17.90;72.40;;;;;;5017882;28;20065;-74
2022/08/28 09:23:21;;;;;;;13.77;3.05;;;17.90;72.30;;;;;;5019946;28;20085;-73
2022/08/28 09:26:01;;;;;;;17.08;3.78;;;17.80;72.40;;;;;;5015624;28;20045;-74
2022/08/28 09:28:33;;;;;;;14.52;3.33;;;18.00;73.40;;;;;;5019340;28;20426;-74
2022/08/28 09:31:07;;;;;;;13.88;3.47;;;18.20;71.30;;;;;;5018525;28;20073;-75
2022/08/28 09:33:43;;;;;;;10.07;3.00;;;18.40;71.10;;;;;;5011785;28;20147;-74
2022/08/28 09:36:33;;;;;;;15.07;2.83;;;18.50;70.60;;;;;;5041588;28;20106;-75
2022/08/28 09:39:05;;;;;;;9.05;3.30;;;18.60;70.30;;;;;;4998876;28;20073;-73
2022/08/28 09:44:19;;;;;;;12.90;3.83;;;18.60;69.80;;;;;;5044187;28;20192;-73
2022/08/28 09:46:47;;;;;;;12.50;3.00;;;18.60;70.50;;;;;;5018414;28;20082;-72
2022/08/28 09:49:14;;;;;;;10.73;2.53;;;18.60;69.20;;;;;;5014039;28;20054;-73
2022/08/28 09:51:40;;;;;;;13.10;2.88;;;18.60;70.10;;;;;;4987279;28;20046;-73
2022/08/28 09:54:22;;;;;;;12.32;2.53;;;18.90;69.20;;;;;;5019317;28;20462;-72
2022/08/28 09:56:49;;;;;;;10.27;3.20;;;18.80;67.80;;;;;;5027094;28;20046;-73
2022/08/28 09:59:18;;;;;;;15.82;3.35;;;18.70;68.90;;;;;;5010907;28;20064;-75
2022/08/28 10:02:11;;;;;;;8.35;2.30;;;18.90;68.50;;;;;;4989365;28;20160;-73
2022/08/28 10:05:07;;;;;;;15.55;2.90;;;19.30;67.90;;;;;;5022738;28;20157;-74
2022/08/28 10:07:45;;;;;;;9.25;2.50;;;19.50;66.90;;;;;;5019781;28;20064;-75
2022/08/28 10:10:28;;;;;;;10.40;2.83;;;19.70;66.90;;;;;;5026380;28;20045;-74
2022/08/28 10:13:26;;;;;;;8.90;2.30;;;19.80;65.90;;;;;;5042364;28;20371;-74
2022/08/28 10:16:23;;;;;;;10.95;2.90;;;19.90;65.50;;;;;;5023875;28;20475;-73
2022/08/28 10:19:30;;;;;;;8.98;3.08;;;19.90;65.00;;;;;;5022943;28;20053;-73
2022/08/28 10:22:34;;;;;;;13.50;2.97;;;19.80;65.50;;;;;;5017069;28;20068;-73
2022/08/28 10:25:08;;;;;;;7.93;2.50;;;19.90;65.40;;;;;;5024180;28;20130;-74
2022/08/28 10:27:59;;;;;;;8.27;2.63;;;20.10;64.40;;;;;;5025659;28;20049;-72
2022/08/28 10:30:26;;;;;;;9.18;3.13;;;20.10;62.80;;;;;;5032886;28;20057;-74
2022/08/28 10:33:16;;;;;;;9.38;2.78;;;20.00;62.50;;;;;;5024751;28;20349;-73
2022/08/28 10:35:57;;;;;;;13.15;2.92;;;19.90;62.80;;;;;;5027163;28;20360;-72
2022/08/28 10:38:43;;;;;;;11.63;2.70;;;20.10;63.50;;;;;;5041603;28;20717;-73
2022/08/28 10:41:20;;;;;;;8.85;2.60;;;20.30;62.60;;;;;;5016192;28;20119;-72
2022/08/28 10:43:52;;;;;;;9.75;2.50;;;20.30;62.00;;;;;;5019607;28;20115;-73
2022/08/28 10:46:35;;;;;;;12.68;2.42;;;20.30;63.00;;;;;;5032799;28;20077;-73
2022/08/28 10:49:07;;;;;;;12.13;2.65;;;20.30;62.30;;;;;;5013470;28;20087;-73
2022/08/28 10:51:50;;;;;;;11.88;2.90;;;20.50;62.00;;;;;;5000751;28;20061;-73
2022/08/28 10:54:25;;;;;;;9.45;2.45;;;20.50;61.50;;;;;;5045039;28;20095;-74
2022/08/28 10:57:02;;;;;;;10.23;2.88;;;20.50;59.00;;;;;;5027832;28;20490;-73
2022/08/28 10:59:28;;;;;;;10.20;2.80;;;20.60;58.70;;;;;;5016197;28;20228;-72
2022/08/28 11:01:56;;;;;;;10.98;2.33;;;20.40;58.30;;;;;;5022265;28;20340;-73
2022/08/28 11:04:23;;;;;;;7.28;2.40;;;20.50;59.70;;;;;;5037182;28;20128;-73
2022/08/28 11:06:56;;;;;;;9.85;2.53;;;20.70;58.90;;;;;;5004357;28;20111;-73
2022/08/28 11:09:44;;;;;;;9.50;3.20;;;20.80;59.10;;;;;;5019409;28;20468;-72
2022/08/28 11:12:19;;;;;;;11.35;2.75;;;20.80;58.90;;;;;;4982287;28;20045;-71
2022/08/28 11:14:50;;;;;;;9.27;2.55;;;20.90;59.00;;;;;;5019132;28;20083;-72
2022/08/28 11:17:29;;;;;;;11.38;3.22;;;21.00;58.50;;;;;;5002907;28;20946;-72
2022/08/28 11:20:08;;;;;;;;;;;21.20;59.20;;;;;;5022596;28;20194;-73
2022/08/28 11:22:40;;;;;;;8.85;2.58;;;21.40;57.90;;;;;;5019157;28;19917;-74
2022/08/28 11:25:33;;;;;;;7.50;2.70;;;21.30;58.30;;;;;;5017999;28;20049;-73
2022/08/28 11:28:39;;;;;;;11.18;3.30;;;21.40;57.50;;;;;;5008601;28;20133;-73
2022/08/28 11:31:04;;;;;;;10.68;3.00;;;21.40;57.90;;;;;;5013167;28;20056;-73
2022/08/28 11:33:41;;;;;;;11.00;2.72;;;21.40;57.50;;;;;;5017173;28;20041;-72
2022/08/28 11:36:10;;;;;;;9.75;2.70;;;21.30;57.40;;;;;;5007143;28;20048;-74
2022/08/28 11:38:45;;;;;;;8.38;2.58;;;21.50;58.40;;;;;;5016401;28;20054;-74
2022/08/28 11:41:16;;;;;;;9.90;2.50;;;21.60;57.60;;;;;;5020889;28;20511;-72
2022/08/28 11:43:44;;;;;;;10.27;2.85;;;21.50;56.00;;;;;;5003197;28;20645;-73
2022/08/28 11:46:32;;;;;;;10.13;2.92;;;21.50;56.80;;;;;;5008632;28;20045;-73
2022/08/28 11:49:23;;;;;;;;;;;21.70;57.00;;;;;;5020679;28;20045;-74
2022/08/28 11:52:26;;;;;;;8.68;2.78;;;22.00;56.90;;;;;;5021376;28;19924;-72
2022/08/28 11:55:23;;;;;;;12.30;2.88;;;21.80;55.30;;;;;;5026502;28;20088;-74
2022/08/28 11:57:58;;;;;;;6.82;2.60;;;21.80;55.50;;;;;;5024818;28;20152;-74
2022/08/28 12:00:50;;;;;;;7.93;2.47;;;21.80;55.50;;;;;;4998111;28;20709;-72
2022/08/28 12:03:56;;;;;;;6.95;2.53;;;21.70;54.50;;;;;;5022086;28;20053;-74
2022/08/28 12:07:10;;;;;;;8.23;2.53;;;21.80;54.70;;;;;;5017736;28;20060;-73
2022/08/28 12:09:40;;;;;;;7.43;2.33;;;22.20;55.10;;;;;;5015668;28;20145;-74
2022/08/28 12:12:42;;;;;;;7.57;2.50;;;22.30;54.20;;;;;;5014513;28;20080;-72
2022/08/28 12:15:10;;;;;;;10.20;2.30;;;22.40;53.40;;;;;;5017587;28;20057;-71
2022/08/28 12:17:42;;;;;;;6.78;2.35;;;22.40;52.50;;;;;;4987245;28;20476;-73
2022/08/28 12:20:31;;;;;;;9.18;2.60;;;22.40;51.80;;;;;;5030495;28;20057;-72
2022/08/28 12:23:01;;;;;;;7.82;2.83;;;22.30;53.10;;;;;;5010656;28;20049;-72
2022/08/28 12:25:35;;;;;;;10.20;2.47;;;22.50;52.60;;;;;;5003559;28;20083;-73
2022/08/28 12:28:23;;;;;;;5.82;2.30;;;22.60;52.80;;;;;;5014341;28;20457;-73
2022/08/28 12:31:10;;;;;;;9.98;2.38;;;22.70;53.10;;;;;;5005857;28;20049;-72
2022/08/28 12:33:58;;;;;;;8.65;2.40;;;22.70;52.70;;;;;;5033449;28;20127;-74
2022/08/28 12:36:25;;;;;;;5.25;1.88;;;22.50;52.50;;;;;;5022309;28;20803;-67
2022/08/28 12:38:54;;;;;;;7.35;2.30;;;22.70;52.40;;;;;;5001960;28;20038;-68
2022/08/28 12:41:21;;;;;;;8.23;2.47;;;22.80;52.70;;;;;;5002764;28;20054;-68
2022/08/28 12:43:47;;;;;;;5.50;2.30;;;23.00;51.00;;;;;;5036575;28;20053;-69
2022/08/28 12:46:50;;;;;;;7.90;2.25;;;23.20;51.20;;;;;;4991282;28;20376;-69
2022/08/28 12:49:35;;;;;;;9.93;2.53;;;23.10;49.50;;;;;;5006522;28;20050;-69
2022/08/28 12:52:15;;;;;;;8.48;2.60;;;23.00;50.20;;;;;;5023987;28;20045;-69
2022/08/28 12:54:43;;;;;;;7.00;2.42;;;23.10;50.20;;;;;;4989347;28;20080;-68
2022/08/28 12:57:13;;;;;;;10.55;2.38;;;23.20;50.60;;;;;;4980416;28;20064;-68
2022/08/28 12:59:41;;;;;;;7.85;2.30;;;23.10;50.70;;;;;;5006124;28;20427;-68
2022/08/28 13:02:17;;;;;;;7.55;2.55;;;23.30;50.50;;;;;;5017410;28;20656;-67
2022/08/28 13:05:06;;;;;;;8.02;2.40;;;23.60;50.00;;;;;;5020183;28;20200;-72
2022/08/28 13:07:39;;;;;;;7.95;2.42;;;24.00;49.40;;;;;;5023516;28;20045;-72